Time;durP1;ratioP1;P1;durP2;ratioP2;P2;SDS_P1;SDS_P2;PMS_P1;PMS_P2;Temp;Humidity;BMP_temperature;BMP_pressure;BME280_temperature;BME280_humidity;BME280_pressure;Samples;Min_cycle;Max_cycle;Signal;HPM_P1;HPM_P2
2021/10/01 00:01:37;;;;;;;8.95;3.63;;;;;;;6.38;nan;102627.38;4898875;29;20126;-82
2021/10/01 00:04:06;;;;;;;6.47;3.25;;;;;;;6.40;nan;102631.53;4918045;29;20151;-83
2021/10/01 00:06:31;;;;;;;5.07;3.28;;;;;;;6.41;nan;102624.38;4895545;29;20039;-81
2021/10/01 00:08:57;;;;;;;7.93;3.20;;;;;;;6.43;nan;102614.38;4894224;29;20569;-84
2021/10/01 00:11:23;;;;;;;8.30;3.47;;;;;;;6.41;nan;102621.69;4893735;29;20130;-81
2021/10/01 00:13:48;;;;;;;4.82;3.08;;;;;;;6.39;nan;102619.22;4896653;29;20490;-81
2021/10/01 00:16:15;;;;;;;5.20;3.08;;;;;;;6.43;nan;102617.03;4895525;29;20110;-81
2021/10/01 00:18:41;;;;;;;5.63;2.60;;;;;;;6.38;nan;102612.25;4910806;29;20055;-83
2021/10/01 00:21:09;;;;;;;5.72;3.40;;;;;;;6.36;nan;102619.56;4916694;29;20475;-83
2021/10/01 00:23:37;;;;;;;10.10;2.80;;;;;;;6.34;nan;102616.25;4915117;29;20084;-83
2021/10/01 00:26:04;;;;;;;7.07;3.40;;;;;;;6.32;nan;102624.44;4910426;29;20056;-83
2021/10/01 00:28:29;;;;;;;6.07;3.35;;;;;;;6.28;nan;102623.13;4916283;29;20035;-83
2021/10/01 00:30:56;;;;;;;5.28;3.00;;;;;;;6.26;nan;102614.44;4918709;29;20043;-82
2021/10/01 00:33:29;;;;;;;6.40;3.05;;;;;;;6.18;nan;102617.16;4912799;29;20743;-82
2021/10/01 00:35:54;;;;;;;5.43;3.00;;;;;;;6.17;nan;102609.34;4902780;29;20083;-83
2021/10/01 00:38:20;;;;;;;7.47;2.92;;;;;;;6.16;nan;102605.03;4907781;29;20106;-83
2021/10/01 00:40:46;;;;;;;5.00;2.92;;;;;;;6.13;nan;102606.22;4915675;29;20459;-82
2021/10/01 00:43:11;;;;;;;12.07;3.40;;;;;;;6.14;nan;102597.22;4898829;29;20031;-83
2021/10/01 00:45:37;;;;;;;6.95;3.10;;;;;;;6.12;nan;102598.41;4896294;29;20501;-83
2021/10/01 00:48:02;;;;;;;9.23;3.25;;;;;;;6.14;nan;102604.38;4908710;29;20403;-82
2021/10/01 00:50:28;;;;;;;6.85;2.97;;;;;;;6.12;nan;102593.91;4915341;29;20590;-83
2021/10/01 00:52:53;;;;;;;9.73;3.30;;;;;;;6.14;nan;102591.06;4901719;29;20043;-83
2021/10/01 00:55:20;;;;;;;6.70;3.38;;;;;;;6.15;nan;102601.53;4898964;29;20650;-82
2021/10/01 00:57:45;;;;;;;6.68;3.30;;;;;;;6.18;nan;102595.03;4901069;29;20031;-82
2021/10/01 01:00:27;;;;;;;7.35;3.30;;;;;;;6.15;nan;102590.06;4908537;29;20024;-83
2021/10/01 01:02:59;;;;;;;7.35;3.50;;;;;;;6.11;nan;102583.44;4918062;29;20024;-81
2021/10/01 01:05:39;;;;;;;6.60;3.40;;;;;;;6.12;nan;102580.59;4910017;29;20028;-82
2021/10/01 01:08:09;;;;;;;5.38;3.17;;;;;;;6.15;nan;102574.09;4895924;29;20035;-82
2021/10/01 01:10:44;;;;;;;6.60;2.85;;;;;;;6.16;nan;102581.09;4899118;29;20088;-81
2021/10/01 01:13:31;;;;;;;7.65;3.30;;;;;;;6.13;nan;102584.09;4911368;29;20395;-81
2021/10/01 01:16:03;;;;;;;7.05;3.33;;;;;;;6.18;nan;102577.25;4910628;29;20179;-81
2021/10/01 01:18:36;;;;;;;7.53;3.53;;;;;;;6.19;nan;102578.91;4915903;29;20039;-82
2021/10/01 01:21:03;;;;;;;7.63;3.40;;;;;;;6.17;nan;102570.25;4912932;29;20052;-81
2021/10/01 01:23:59;;;;;;;8.77;3.20;;;;;;;6.17;nan;102574.75;4920386;29;20032;-82
2021/10/01 01:26:50;;;;;;;9.55;3.17;;;;;;;6.18;nan;102574.56;4913711;29;20068;-83
2021/10/01 01:29:34;;;;;;;7.28;3.20;;;;;;;6.16;nan;102559.78;4909559;29;20059;-82
2021/10/01 01:32:11;;;;;;;6.17;3.47;;;;;;;6.17;nan;102564.09;4909549;29;20043;-81
2021/10/01 01:34:47;;;;;;;5.47;3.13;;;;;;;6.15;nan;102556.31;4913109;29;20024;-82
2021/10/01 01:37:24;;;;;;;5.68;3.03;;;;;;;6.18;nan;102555.94;4913685;29;20127;-82
2021/10/01 01:39:51;;;;;;;4.65;3.03;;;;;;;6.20;nan;102561.09;4914703;29;20469;-82
2021/10/01 01:42:18;;;;;;;10.48;3.30;;;;;;;6.20;nan;102551.28;4897773;29;20087;-82
2021/10/01 01:44:46;;;;;;;6.13;3.10;;;;;;;6.19;nan;102551.44;4917326;29;20034;-82
2021/10/01 01:47:12;;;;;;;9.50;3.70;;;;;;;6.15;nan;102553.63;4923775;29;20114;-83
2021/10/01 01:49:41;;;;;;;5.00;2.90;;;;;;;6.16;nan;102555.28;4908955;29;20044;-82
2021/10/01 01:52:08;;;;;;;9.75;3.88;;;;;;;6.17;nan;102545.47;4916632;29;20094;-83
2021/10/01 01:54:35;;;;;;;5.07;3.13;;;;;;;6.14;nan;102551.16;4895170;29;20127;-83
2021/10/01 01:57:02;;;;;;;6.70;3.30;;;;;;;6.12;nan;102546.00;4900165;29;20051;-83
2021/10/01 01:59:30;;;;;;;6.60;3.40;;;;;;;6.12;nan;102550.50;4900598;29;20043;-81
2021/10/01 02:01:57;;;;;;;9.90;3.90;;;;;;;6.14;nan;102551.16;4900435;29;20039;-83
2021/10/01 02:04:25;;;;;;;7.90;3.45;;;;;;;6.19;nan;102557.59;4900893;29;20027;-83
2021/10/01 02:06:52;;;;;;;11.05;4.25;;;;;;;6.19;nan;102546.97;4890661;29;20027;-83
2021/10/01 02:09:32;;;;;;;6.80;3.17;;;;;;;6.18;nan;102547.13;4896636;29;20701;-83
2021/10/01 02:11:58;;;;;;;9.30;3.63;;;;;;;6.23;nan;102544.75;4877718;29;20032;-82
2021/10/01 02:14:26;;;;;;;8.00;2.97;;;;;;;6.22;nan;102541.28;4895496;29;20119;-83
2021/10/01 02:16:54;;;;;;;4.07;2.88;;;;;;;6.22;nan;102543.13;4922098;29;20031;-82
2021/10/01 02:19:21;;;;;;;5.85;3.03;;;;;;;6.20;nan;102539.81;4912198;29;20037;-83
2021/10/01 02:21:48;;;;;;;8.73;3.17;;;;;;;6.25;nan;102535.59;4916260;29;20600;-83
2021/10/01 02:24:17;;;;;;;8.15;3.20;;;;;;;6.29;nan;102536.94;4919772;29;20395;-83
2021/10/01 02:26:50;;;;;;;5.28;3.05;;;;;;;6.30;nan;102535.09;4924388;29;20036;-83
2021/10/01 02:29:25;;;;;;;4.40;2.58;;;;;;;6.28;nan;102532.63;4916398;29;20032;-84
2021/10/01 02:31:54;;;;;;;5.80;2.90;;;;;;;6.30;nan;102530.59;4899229;29;20032;-82
2021/10/01 02:34:27;;;;;;;9.07;3.17;;;;;;;6.35;nan;102538.03;4917642;29;20032;-82
2021/10/01 02:36:52;;;;;;;7.07;3.08;;;;;;;6.32;nan;102544.56;4917475;29;20055;-81
2021/10/01 02:39:18;;;;;;;4.85;2.90;;;;;;;6.41;nan;102541.81;4895137;29;20070;-83
2021/10/01 02:41:44;;;;;;;4.55;3.20;;;;;;;6.37;nan;102530.72;4927993;29;20039;-82
2021/10/01 02:44:10;;;;;;;7.15;3.05;;;;;;;6.41;nan;102536.50;4909237;29;20505;-82
2021/10/01 02:46:35;;;;;;;6.65;2.80;;;;;;;6.41;nan;102539.16;4901940;29;20031;-82
2021/10/01 02:49:01;;;;;;;6.97;3.35;;;;;;;6.36;nan;102537.88;4912635;29;20177;-82
2021/10/01 02:51:30;;;;;;;4.30;3.20;;;;;;;6.36;nan;102529.88;4914996;29;20035;-82
2021/10/01 02:53:59;;;;;;;5.00;3.60;;;;;;;6.36;nan;102529.06;4914027;29;20107;-83
2021/10/01 02:56:32;;;;;;;7.00;4.15;;;;;;;6.24;nan;102525.97;4917000;29;20519;-81
2021/10/01 02:59:01;;;;;;;6.82;3.40;;;;;;;6.29;nan;102518.28;4913122;29;20031;-82
2021/10/01 03:01:29;;;;;;;9.20;4.20;;;;;;;6.30;nan;102519.94;4917801;29;20681;-82
2021/10/01 03:04:00;;;;;;;5.07;3.78;;;;;;;6.35;nan;102522.06;4918554;29;20276;-82
2021/10/01 03:06:29;;;;;;;6.57;3.92;;;;;;;6.34;nan;102513.25;4917229;29;20028;-82
2021/10/01 03:08:54;;;;;;;6.53;4.07;;;;;;;6.40;nan;102516.22;4916424;29;20156;-83
2021/10/01 03:11:24;;;;;;;7.05;3.70;;;;;;;6.35;nan;102514.91;4910816;29;20036;-81
2021/10/01 03:13:51;;;;;;;5.43;3.60;;;;;;;6.35;nan;102512.25;4908100;29;20028;-82
2021/10/01 03:16:21;;;;;;;6.60;4.00;;;;;;;6.34;nan;102510.59;4919814;29;20123;-84
2021/10/01 03:18:49;;;;;;;7.85;3.58;;;;;;;6.39;nan;102506.56;4920345;29;20043;-83
2021/10/01 03:21:18;;;;;;;9.77;4.00;;;;;;;6.28;nan;102511.31;4917889;29;20032;-83
2021/10/01 03:23:44;;;;;;;6.18;3.78;;;;;;;6.29;nan;102510.31;4923444;29;20032;-83
2021/10/01 03:26:11;;;;;;;9.30;3.72;;;;;;;6.31;nan;102508.28;4904613;29;20024;-83
2021/10/01 03:28:38;;;;;;;4.53;3.53;;;;;;;6.30;nan;102503.97;4896503;29;20028;-84
2021/10/01 03:31:04;;;;;;;4.80;3.75;;;;;;;6.25;nan;102502.81;4899077;29;20043;-84
2021/10/01 03:33:30;;;;;;;7.60;4.32;;;;;;;6.24;nan;102499.34;4913141;29;20067;-83
2021/10/01 03:35:56;;;;;;;5.80;4.03;;;;;;;6.26;nan;102500.00;4919009;29;20517;-83
2021/10/01 03:38:23;;;;;;;12.13;4.72;;;;;;;6.32;nan;102501.13;4898807;29;20115;-83
2021/10/01 03:40:50;;;;;;;8.35;4.25;;;;;;;6.29;nan;102497.00;4924752;29;20052;-83
2021/10/01 03:43:16;;;;;;;7.13;4.07;;;;;;;6.29;nan;102496.16;4901034;29;20025;-84
2021/10/01 03:45:42;;;;;;;9.75;3.92;;;;;;;6.26;nan;102500.00;4922807;29;20032;-84
2021/10/01 03:48:07;;;;;;;8.43;3.53;;;;;;;6.29;nan;102499.66;4894897;29;20039;-84
2021/10/01 03:50:34;;;;;;;9.20;4.18;;;;;;;6.27;nan;102503.47;4894646;29;20102;-84
2021/10/01 03:53:00;;;;;;;6.45;3.72;;;;;;;6.23;nan;102512.81;4917511;29;20095;-83
2021/10/01 03:55:27;;;;;;;9.13;4.28;;;;;;;6.26;nan;102507.97;4894693;29;20019;-82
2021/10/01 03:57:53;;;;;;;8.55;4.03;;;;;;;6.21;nan;102505.03;4914998;29;20048;-84
2021/10/01 04:00:19;;;;;;;8.55;3.78;;;;;;;6.23;nan;102507.50;4898505;29;20024;-83
2021/10/01 04:02:45;;;;;;;6.88;3.72;;;;;;;6.23;nan;102496.84;4898321;29;20032;-82
2021/10/01 04:05:13;;;;;;;10.63;3.97;;;;;;;6.26;nan;102493.84;4899793;29;20056;-84
2021/10/01 04:07:38;;;;;;;9.13;4.25;;;;;;;6.24;nan;102496.69;4915274;29;20059;-81
2021/10/01 04:10:06;;;;;;;6.15;3.72;;;;;;;6.25;nan;102498.34;4902316;29;20510;-84
2021/10/01 04:12:33;;;;;;;8.07;4.13;;;;;;;6.26;nan;102492.00;4914425;29;20121;-81
2021/10/01 04:14:59;;;;;;;5.50;4.00;;;;;;;6.21;nan;102494.38;4922662;29;20040;-82
2021/10/01 04:17:25;;;;;;;7.13;3.75;;;;;;;6.21;nan;102494.38;4916731;29;20496;-83
2021/10/01 04:19:50;;;;;;;7.20;3.70;;;;;;;6.27;nan;102492.81;4903212;29;20096;-83
2021/10/01 04:22:17;;;;;;;6.15;3.85;;;;;;;6.25;nan;102495.66;4919700;29;20109;-81
2021/10/01 04:24:43;;;;;;;7.35;4.00;;;;;;;6.24;nan;102491.34;4912557;29;20092;-83
2021/10/01 04:27:18;;;;;;;7.13;4.13;;;;;;;6.22;nan;102498.69;4900998;29;20032;-84
2021/10/01 04:29:44;;;;;;;6.40;3.97;;;;;;;6.24;nan;102496.69;4909669;29;20028;-82
2021/10/01 04:32:10;;;;;;;9.38;4.40;;;;;;;6.23;nan;102495.03;4913293;29;20095;-81
2021/10/01 04:35:21;;;;;;;4.40;4.00;;;;;;;6.21;nan;102498.88;4920474;29;20499;-81
2021/10/01 04:37:22;;;;;;;7.45;3.90;;;;;;;6.21;nan;102497.03;4910290;29;20032;-81
2021/10/01 04:39:47;;;;;;;11.35;4.55;;;;;;;6.21;nan;102491.72;4893477;29;20043;-81
2021/10/01 04:42:13;;;;;;;12.07;4.57;;;;;;;6.19;nan;102498.22;4894973;29;20086;-83
2021/10/01 04:44:38;;;;;;;7.25;3.88;;;;;;;6.22;nan;102496.03;4898548;29;20202;-82
2021/10/01 04:47:04;;;;;;;5.88;3.85;;;;;;;6.28;nan;102497.16;4899176;29;20038;-82
2021/10/01 04:49:30;;;;;;;9.75;4.13;;;;;;;6.23;nan;102500.34;4884336;29;20075;-82
2021/10/01 04:51:55;;;;;;;6.72;4.18;;;;;;;6.22;nan;102496.03;4898602;29;20032;-83
2021/10/01 04:54:21;;;;;;;5.70;4.10;;;;;;;6.26;nan;102494.66;4915241;29;20402;-82
2021/10/01 04:56:47;;;;;;;9.40;4.40;;;;;;;6.24;nan;102487.88;4896376;29;20123;-82
2021/10/01 04:59:13;;;;;;;11.13;4.35;;;;;;;6.26;nan;102492.00;4910720;29;20547;-82
2021/10/01 05:01:38;;;;;;;8.10;4.25;;;;;;;6.24;nan;102494.00;4905388;29;20118;-82
2021/10/01 05:04:04;;;;;;;6.88;4.40;;;;;;;6.26;nan;102492.00;4890544;29;20483;-81
2021/10/01 05:06:30;;;;;;;6.18;4.00;;;;;;;6.33;nan;102503.63;4909535;29;20028;-81
2021/10/01 05:08:55;;;;;;;9.05;4.32;;;;;;;6.24;nan;102499.34;4912094;29;20035;-81
2021/10/01 05:11:21;;;;;;;7.40;4.68;;;;;;;6.26;nan;102499.16;4892418;29;20036;-80
2021/10/01 05:16:51;;;;;;;7.32;5.25;;;;;;;6.23;nan;102494.19;4910037;29;20063;-80
2021/10/01 05:19:16;;;;;;;5.78;3.72;;;;;;;6.25;nan;102493.00;4905825;29;20535;-80
2021/10/01 05:21:42;;;;;;;10.55;4.95;;;;;;;6.32;nan;102491.31;4909476;29;20096;-80
2021/10/01 05:24:08;;;;;;;6.95;4.15;;;;;;;6.31;nan;102492.31;4912878;29;20059;-79
2021/10/01 05:26:34;;;;;;;7.00;4.03;;;;;;;6.44;nan;102499.69;4911865;29;20974;-80
2021/10/01 05:29:00;;;;;;;7.55;4.35;;;;;;;6.48;nan;102494.88;4887932;29;20028;-80
2021/10/01 05:31:26;;;;;;;7.22;4.63;;;;;;;6.52;nan;102491.66;4902420;29;20509;-80
2021/10/01 05:33:51;;;;;;;7.25;4.60;;;;;;;6.54;nan;102492.31;4899582;29;20036;-80
2021/10/01 05:36:18;;;;;;;7.47;3.97;;;;;;;6.59;nan;102492.59;4908295;29;20036;-81
2021/10/01 05:38:43;;;;;;;8.55;4.53;;;;;;;6.72;nan;102499.16;4896772;29;20151;-81
2021/10/01 05:41:09;;;;;;;6.38;4.57;;;;;;;6.78;nan;102488.59;4883605;29;20119;-81
2021/10/01 05:43:34;;;;;;;12.95;4.70;;;;;;;6.94;nan;102499.09;4909757;29;20501;-80
2021/10/01 05:46:00;;;;;;;8.82;4.45;;;;;;;7.05;nan;102494.34;4898570;29;20039;-81
2021/10/01 05:48:28;;;;;;;5.65;3.92;;;;;;;7.17;nan;102491.03;4906527;29;20119;-81
2021/10/01 05:50:57;;;;;;;8.05;4.13;;;;;;;7.30;nan;102492.25;4904689;29;20600;-81
2021/10/01 05:53:38;;;;;;;5.50;4.10;;;;;;;7.47;nan;102488.38;4890827;29;20112;-80
2021/10/01 05:56:08;;;;;;;6.55;4.32;;;;;;;7.64;nan;102487.19;4910617;29;20035;-81
2021/10/01 05:58:35;;;;;;;7.47;3.78;;;;;;;7.71;nan;102487.25;4906432;29;20042;-80
2021/10/01 06:01:01;;;;;;;5.15;3.40;;;;;;;7.85;nan;102486.41;4893463;29;20403;-80
2021/10/01 06:03:27;;;;;;;6.15;3.70;;;;;;;8.01;nan;102488.03;4921129;29;20031;-80
2021/10/01 06:05:53;;;;;;;6.18;3.95;;;;;;;8.07;nan;102485.41;4923557;29;20051;-80
2021/10/01 06:08:22;;;;;;;7.00;3.75;;;;;;;8.15;nan;102477.31;4901218;29;20406;-80
2021/10/01 06:10:48;;;;;;;6.95;3.50;;;;;;;8.28;nan;102479.28;4916803;29;20159;-81
2021/10/01 06:13:14;;;;;;;5.88;3.30;;;;;;;8.36;nan;102483.69;4915550;29;20187;-80
2021/10/01 06:15:40;;;;;;;5.68;3.50;;;;;;;8.41;nan;102481.25;4920564;29;20498;-79
2021/10/01 06:18:05;;;;;;;5.85;3.65;;;;;;;8.47;nan;102485.88;4907751;29;20115;-81
2021/10/01 06:20:31;;;;;;;4.50;3.42;;;;;;;8.54;nan;102481.41;4916964;29;20094;-80
2021/10/01 06:22:56;;;;;;;6.20;3.80;;;;;;;8.59;nan;102478.13;4899133;29;20429;-80
2021/10/01 06:25:22;;;;;;;7.28;3.63;;;;;;;8.67;nan;102486.84;4911161;29;20052;-80
2021/10/01 06:27:49;;;;;;;7.85;3.85;;;;;;;8.77;nan;102481.16;4892507;29;20074;-79
2021/10/01 06:30:16;;;;;;;4.90;3.40;;;;;;;8.83;nan;102477.75;4909829;29;20491;-80
2021/10/01 06:32:41;;;;;;;11.27;4.22;;;;;;;8.79;nan;102471.09;4913177;29;20024;-80
2021/10/01 06:35:08;;;;;;;4.78;3.58;;;;;;;8.92;nan;102473.06;4905321;29;20087;-79
2021/10/01 06:37:37;;;;;;;9.05;3.60;;;;;;;8.98;nan;102464.28;4889767;29;20163;-80
2021/10/01 06:40:05;;;;;;;8.10;4.18;;;;;;;9.03;nan;102470.69;4915994;29;20048;-80
2021/10/01 06:42:32;;;;;;;10.68;3.58;;;;;;;9.15;nan;102468.25;4904486;29;20055;-80
2021/10/01 06:45:01;;;;;;;5.82;3.58;;;;;;;9.30;nan;102455.59;4908315;29;20028;-81
2021/10/01 06:47:46;;;;;;;4.45;3.50;;;;;;;9.39;nan;102465.13;4906198;29;20024;-80
2021/10/01 08:19:32;;;;;;;2.42;1.70;;;;;;;12.96;nan;102444.69;4897390;29;20055;-80
2021/10/01 08:21:59;;;;;;;4.72;1.67;;;;;;;13.04;nan;102444.38;4880393;29;20036;-81
2021/10/01 08:24:26;;;;;;;4.13;2.00;;;;;;;13.22;nan;102443.59;4897747;29;20032;-80
2021/10/01 08:26:52;;;;;;;4.45;1.73;;;;;;;13.26;nan;102437.53;4900355;29;20273;-81
2021/10/01 08:29:18;;;;;;;2.95;1.42;;;;;;;13.52;nan;102435.59;4907522;29;20028;-81
2021/10/01 08:31:45;;;;;;;3.35;1.58;;;;;;;13.64;nan;102439.16;4900806;29;20487;-81
2021/10/01 08:34:10;;;;;;;4.18;1.50;;;;;;;13.68;nan;102436.84;4900448;29;20047;-81
2021/10/01 08:36:36;;;;;;;3.63;1.77;;;;;;;13.72;nan;102436.16;4884546;29;20043;-82
2021/10/01 08:39:06;;;;;;;3.78;1.42;;;;;;;13.82;nan;102433.75;4897816;29;20162;-81
2021/10/01 08:41:33;;;;;;;1.98;1.40;;;;;;;13.95;nan;102432.72;4902513;29;20056;-81
2021/10/01 08:43:58;;;;;;;5.45;1.70;;;;;;;13.94;nan;102441.84;4897042;29;20125;-81
2021/10/01 08:46:24;;;;;;;6.15;1.98;;;;;;;14.07;nan;102433.59;4884477;29;20124;-81
2021/10/01 08:48:52;;;;;;;1.75;1.50;;;;;;;14.18;nan;102443.59;4899506;29;20031;-81
2021/10/01 08:51:17;;;;;;;2.95;1.67;;;;;;;14.16;nan;102428.66;4882319;29;20069;-80
2021/10/01 08:53:43;;;;;;;4.63;1.48;;;;;;;14.28;nan;102426.84;4900023;29;20127;-81
2021/10/01 08:56:10;;;;;;;2.63;1.38;;;;;;;14.47;nan;102425.72;4890820;29;20073;-81
2021/10/01 08:58:35;;;;;;;3.30;1.98;;;;;;;14.44;nan;102419.97;4893198;29;20032;-81
2021/10/01 09:01:46;;;;;;;3.70;1.40;;;;;;;14.58;nan;102421.41;4896011;29;20028;-82
2021/10/01 09:04:56;;;;;;;4.22;1.52;;;;;;;14.57;nan;102413.53;4914717;29;20227;-82
2021/10/01 09:08:34;;;;;;;1.88;1.40;;;;;;;14.72;nan;102412.03;4913844;29;20281;-82
2021/10/01 09:11:14;;;;;;;2.92;1.48;;;;;;;14.93;nan;102401.69;4915904;29;20045;-82
2021/10/01 09:14:28;;;;;;;3.00;1.50;;;;;;;15.04;nan;102403.53;4902767;29;20556;-82
2021/10/01 09:16:54;;;;;;;3.78;1.40;;;;;;;15.27;nan;102400.78;4900314;29;20039;-83
2021/10/01 09:19:50;;;;;;;4.03;1.58;;;;;;;15.32;nan;102390.09;4918397;29;20090;-81
2021/10/01 09:22:35;;;;;;;2.17;1.40;;;;;;;15.54;nan;102400.22;4910979;29;20051;-83
2021/10/01 09:25:29;;;;;;;1.98;1.20;;;;;;;15.52;nan;102392.34;4901274;29;20064;-82
2021/10/01 09:28:21;;;;;;;2.55;1.40;;;;;;;15.43;nan;102402.72;4914509;29;20024;-83
2021/10/01 09:30:50;;;;;;;2.75;1.40;;;;;;;15.34;nan;102390.66;4903709;29;20051;-82
2021/10/01 09:33:19;;;;;;;1.83;1.10;;;;;;;15.28;nan;102394.31;4912989;29;20091;-82
2021/10/01 09:35:46;;;;;;;3.22;1.60;;;;;;;15.54;nan;102386.72;4907994;29;20033;-82
2021/10/01 09:38:15;;;;;;;3.30;1.58;;;;;;;15.30;nan;102386.81;4919468;29;20510;-82
2021/10/01 09:40:42;;;;;;;3.53;1.60;;;;;;;15.39;nan;102373.72;4920604;29;20487;-82
2021/10/01 09:43:26;;;;;;;5.32;1.70;;;;;;;15.46;nan;102379.00;4905251;29;20475;-82
2021/10/01 09:46:14;;;;;;;3.15;1.40;;;;;;;15.72;nan;102373.03;4921615;29;20376;-82
2021/10/01 09:48:40;;;;;;;3.33;1.35;;;;;;;15.74;nan;102378.19;4909023;29;20039;-82
2021/10/01 09:51:12;;;;;;;2.15;1.13;;;;;;;15.36;nan;102383.13;4887904;29;20468;-82
2021/10/01 09:53:51;;;;;;;2.17;1.13;;;;;;;15.47;nan;102375.25;4902630;29;20043;-82
2021/10/01 09:56:27;;;;;;;2.78;1.60;;;;;;;15.74;nan;102376.31;4905278;29;20501;-83
2021/10/01 09:59:23;;;;;;;2.22;1.40;;;;;;;15.85;nan;102371.91;4911971;29;20033;-81
2021/10/01 10:02:12;;;;;;;4.03;1.58;;;;;;;15.84;nan;102367.56;4915037;29;20082;-82
2021/10/01 10:04:42;;;;;;;3.63;1.60;;;;;;;16.04;nan;102361.69;4911777;29;20114;-83
2021/10/01 10:07:19;;;;;;;3.70;1.50;;;;;;;15.90;nan;102359.28;4907783;29;20402;-82
2021/10/01 10:09:50;;;;;;;4.80;1.73;;;;;;;15.85;nan;102356.50;4915515;29;20039;-82
2021/10/01 10:12:37;;;;;;;2.40;1.65;;;;;;;16.05;nan;102350.63;4906762;29;20028;-82
2021/10/01 10:15:05;;;;;;;2.47;1.35;;;;;;;16.38;nan;102357.91;4914364;29;20233;-82
2021/10/01 10:17:31;;;;;;;2.50;1.20;;;;;;;16.36;nan;102348.41;4909768;29;20029;-83
2021/10/01 10:19:59;;;;;;;6.68;1.50;;;;;;;16.20;nan;102350.88;4903958;29;20052;-82
2021/10/01 10:22:31;;;;;;;3.70;1.58;;;;;;;16.46;nan;102352.06;4906816;29;20052;-82
2021/10/01 10:24:57;;;;;;;1.58;1.00;;;;;;;16.38;nan;102347.09;4882350;29;20063;-82
2021/10/01 10:27:27;;;;;;;2.30;1.25;;;;;;;16.48;nan;102339.09;4885423;29;20048;-82
2021/10/01 10:29:52;;;;;;;4.50;1.42;;;;;;;16.71;nan;102340.00;4895397;29;20033;-82
2021/10/01 10:32:19;;;;;;;2.53;1.30;;;;;;;16.48;nan;102349.09;4899988;29;20035;-82
2021/10/01 10:34:48;;;;;;;2.58;1.20;;;;;;;16.71;nan;102340.00;4894296;29;20036;-82
2021/10/01 10:37:17;;;;;;;5.28;1.60;;;;;;;16.93;nan;102340.84;4905421;29;20164;-82
2021/10/01 10:39:48;;;;;;;4.85;1.88;;;;;;;16.60;nan;102337.13;4910245;29;20034;-82
2021/10/01 10:42:16;;;;;;;7.10;1.35;;;;;;;16.37;nan;102328.41;4918095;29;20083;-82
2021/10/01 10:44:49;;;;;;;6.72;1.30;;;;;;;16.28;nan;102328.00;4916351;29;20265;-82
2021/10/01 10:47:39;;;;;;;4.18;1.48;;;;;;;16.55;nan;102328.94;4908248;29;20032;-82
2021/10/01 10:50:26;;;;;;;4.38;1.70;;;;;;;17.10;nan;102319.91;4887370;29;20071;-83
2021/10/01 10:53:08;;;;;;;1.90;1.30;;;;;;;17.21;nan;102310.81;4914938;29;20035;-82
2021/10/01 10:55:51;;;;;;;2.03;1.00;;;;;;;17.29;nan;102314.16;4911530;29;20130;-82
2021/10/01 10:58:23;;;;;;;2.08;1.17;;;;;;;17.47;nan;102302.97;4903196;29;20123;-82
2021/10/01 11:01:01;;;;;;;3.17;1.38;;;;;;;17.08;nan;102299.59;4909606;29;20387;-82
2021/10/01 11:03:33;;;;;;;2.65;1.65;;;;;;;17.45;nan;102294.28;4909129;29;20509;-82
2021/10/01 11:06:08;;;;;;;2.42;1.00;;;;;;;17.74;nan;102295.66;4900360;29;20159;-82
2021/10/01 11:08:35;;;;;;;3.60;1.00;;;;;;;17.84;nan;102297.63;4919008;29;20318;-82
2021/10/01 11:11:01;;;;;;;1.27;0.90;;;;;;;17.71;nan;102301.59;4890614;29;20040;-83
2021/10/01 11:13:28;;;;;;;2.83;1.20;;;;;;;17.86;nan;102298.19;4903390;29;20430;-83
2021/10/01 11:16:09;;;;;;;2.90;0.80;;;;;;;17.75;nan;102291.03;4889556;29;20035;-83
2021/10/01 11:21:27;;;;;;;;;;;;;;;17.94;nan;102281.44;4912468;29;20033;-82
2021/10/01 11:23:57;;;;;;;1.35;0.70;;;;;;;18.34;nan;102275.47;4910234;29;19915;-83
2021/10/01 11:26:36;;;;;;;1.85;0.90;;;;;;;18.78;nan;102264.28;4910877;29;20032;-83
2021/10/01 11:29:04;;;;;;;3.22;0.90;;;;;;;19.26;nan;102260.34;4903423;29;20036;-83
2021/10/01 11:31:40;;;;;;;2.10;1.02;;;;;;;20.09;nan;102270.94;4911341;29;20043;-83
2021/10/01 11:34:07;;;;;;;3.45;1.08;;;;;;;21.49;nan;102249.88;4914156;29;20195;-83
2021/10/01 11:40:03;;;;;;;1.40;0.70;;;;;;;23.06;nan;102246.53;4915469;29;20107;-81
2021/10/01 11:42:37;;;;;;;2.30;0.90;;;;;;;23.48;nan;102242.84;4909481;29;20044;-82
2021/10/01 11:45:12;;;;;;;0.63;0.50;;;;;;;23.58;nan;102242.72;4920425;29;20042;-80
2021/10/01 11:47:38;;;;;;;;;;;;;;;22.21;nan;102241.88;4923030;29;20032;-81
2021/10/01 11:50:05;;;;;;;4.25;1.25;;;;;;;21.80;nan;102242.25;4913950;29;19927;-81
2021/10/01 11:52:42;;;;;;;3.33;1.00;;;;;;;23.79;nan;102233.03;4917833;29;20035;-81
2021/10/01 11:55:08;;;;;;;3.97;0.88;;;;;;;24.49;nan;102229.25;4921817;29;20036;-82
2021/10/01 11:57:36;;;;;;;1.55;0.70;;;;;;;23.81;nan;102239.03;4911165;29;20035;-81
2021/10/01 12:00:14;;;;;;;3.05;0.70;;;;;;;24.12;nan;102227.50;4919313;29;20502;-81
2021/10/01 12:02:45;;;;;;;2.25;1.00;;;;;;;25.58;nan;102222.59;4906118;29;20529;-82
2021/10/01 12:05:18;;;;;;;0.85;0.65;;;;;;;24.60;nan;102229.84;4911470;29;20028;-83
2021/10/01 12:07:46;;;;;;;0.95;0.60;;;;;;;24.36;nan;102230.88;4913383;29;20518;-81
2021/10/01 12:10:12;;;;;;;3.80;1.05;;;;;;;23.00;nan;102218.47;4916334;29;20211;-81
2021/10/01 12:12:37;;;;;;;1.75;0.80;;;;;;;23.44;nan;102212.56;4903335;29;20027;-82
2021/10/01 12:15:03;;;;;;;1.90;0.80;;;;;;;24.50;nan;102202.66;4913633;29;20039;-82
2021/10/01 12:17:37;;;;;;;2.15;0.90;;;;;;;25.40;nan;102204.41;4900730;29;20043;-82
2021/10/01 12:20:03;;;;;;;2.28;0.85;;;;;;;26.05;nan;102201.06;4895211;29;20024;-81
2021/10/01 12:22:32;;;;;;;1.65;1.20;;;;;;;25.97;nan;102196.31;4921464;29;20043;-81
2021/10/01 12:24:59;;;;;;;1.02;0.80;;;;;;;25.55;nan;102198.53;4918460;29;20514;-80
2021/10/01 12:27:40;;;;;;;1.58;0.80;;;;;;;23.21;nan;102195.16;4900409;29;20092;-81
2021/10/01 12:30:08;;;;;;;3.05;0.80;;;;;;;22.55;nan;102206.22;4912894;29;20511;-82
2021/10/01 12:32:34;;;;;;;3.00;1.10;;;;;;;23.00;nan;102196.59;4907497;29;20040;-82
2021/10/01 12:35:00;;;;;;;2.67;0.90;;;;;;;24.27;nan;102199.00;4910279;29;20310;-82
2021/10/01 12:37:31;;;;;;;1.58;1.10;;;;;;;24.59;nan;102184.34;4919565;29;20024;-82
2021/10/01 12:39:59;;;;;;;2.65;0.73;;;;;;;24.34;nan;102180.25;4916480;29;20091;-82
2021/10/01 12:42:27;;;;;;;0.70;0.68;;;;;;;23.89;nan;102192.94;4905831;29;20020;-82
2021/10/01 12:45:14;;;;;;;0.90;0.73;;;;;;;23.33;nan;102186.47;4912827;29;20031;-82
2021/10/01 12:47:42;;;;;;;2.30;0.68;;;;;;;23.87;nan;102178.72;4907739;29;20494;-82
2021/10/01 12:50:09;;;;;;;1.95;0.70;;;;;;;24.81;nan;102164.44;4896496;29;20066;-81
2021/10/01 12:52:36;;;;;;;1.42;0.73;;;;;;;23.37;nan;102170.31;4913166;29;20123;-81
2021/10/01 12:55:08;;;;;;;2.67;0.95;;;;;;;25.21;nan;102155.22;4913455;29;20486;-81
2021/10/01 12:57:40;;;;;;;2.45;0.90;;;;;;;26.46;nan;102156.72;4903851;29;20131;-82
2021/10/01 13:00:05;;;;;;;1.52;0.93;;;;;;;27.36;nan;102151.34;4907824;29;20484;-81
2021/10/01 13:02:33;;;;;;;1.98;0.90;;;;;;;27.32;nan;102155.88;4909741;29;20039;-81
2021/10/01 13:05:02;;;;;;;2.00;0.90;;;;;;;26.91;nan;102142.63;4913236;29;20032;-82
2021/10/01 13:07:33;;;;;;;0.90;0.80;;;;;;;27.47;nan;102138.03;4902684;29;20028;-81
2021/10/01 13:10:21;;;;;;;1.20;0.88;;;;;;;26.38;nan;102141.03;4917350;29;20032;-82
2021/10/01 13:13:03;;;;;;;1.48;1.00;;;;;;;25.23;nan;102131.03;4908835;29;20039;-82
2021/10/01 13:15:31;;;;;;;1.38;0.90;;;;;;;27.06;nan;102128.41;4898632;29;20032;-82
2021/10/01 13:18:07;;;;;;;3.50;1.10;;;;;;;28.68;nan;102120.81;4894619;29;20418;-82
2021/10/01 13:20:36;;;;;;;1.52;1.00;;;;;;;29.63;nan;102119.84;4917685;29;20020;-83
2021/10/01 13:23:08;;;;;;;2.85;1.02;;;;;;;30.41;nan;102118.72;4913316;29;20043;-83
2021/10/01 13:25:37;;;;;;;3.10;0.90;;;;;;;31.10;nan;102111.19;4913471;29;20499;-83
2021/10/01 13:28:04;;;;;;;1.83;0.98;;;;;;;30.76;nan;102116.19;4902156;29;20044;-82
2021/10/01 13:30:31;;;;;;;2.78;1.30;;;;;;;30.38;nan;102102.84;4915935;29;20037;-82
2021/10/01 13:32:57;;;;;;;3.83;1.30;;;;;;;31.12;nan;102092.25;4911762;29;20062;-82
2021/10/01 13:35:23;;;;;;;2.58;0.90;;;;;;;29.59;nan;102101.53;4906569;29;20547;-83
2021/10/01 13:37:50;;;;;;;2.92;1.10;;;;;;;30.57;nan;102088.38;4910537;29;20519;-83
2021/10/01 13:40:16;;;;;;;1.45;0.75;;;;;;;30.98;nan;102079.63;4905215;29;20029;-83